createdAt,value
2019-04-14T00:00:35.893Z,3.32
2019-04-14T00:01:36.664Z,3.36
2019-04-14T00:02:35.868Z,3.41
2019-04-14T00:03:36.830Z,3.45
2019-04-14T00:04:35.721Z,3.37
2019-04-14T00:05:36.918Z,3.32
2019-04-14T00:06:35.683Z,3.36
2019-04-14T00:07:36.308Z,3.35
2019-04-14T00:08:35.696Z,3.45
2019-04-14T00:09:35.814Z,3.29
2019-04-14T00:10:35.660Z,3.33
2019-04-14T00:11:36.540Z,3.33
2019-04-14T00:12:35.853Z,3.27
2019-04-14T00:13:35.617Z,3.25
2019-04-14T00:14:35.787Z,3.20
2019-04-14T00:15:41.126Z,3.22
2019-04-14T00:16:36.616Z,3.14
2019-04-14T00:17:35.586Z,3.12
2019-04-14T00:18:35.909Z,3.18
2019-04-14T00:19:35.640Z,3.12
2019-04-14T00:20:35.918Z,3.20
2019-04-14T00:21:36.705Z,3.20
2019-04-14T00:22:35.709Z,3.09
2019-04-14T00:23:35.536Z,3.14
2019-04-14T00:24:35.790Z,3.11
2019-04-14T00:25:35.476Z,3.07
2019-04-14T00:26:35.638Z,3.11
2019-04-14T00:27:36.655Z,3.09
2019-04-14T00:28:35.778Z,3.09
2019-04-14T00:29:35.430Z,3.14
2019-04-14T00:30:35.792Z,3.04
2019-04-14T00:31:35.431Z,3.05
2019-04-14T00:32:35.550Z,3.07
2019-04-14T00:33:36.655Z,3.08
2019-04-14T00:35:54.201Z,3.09
2019-04-14T00:36:54.508Z,3.07
2019-04-14T00:38:23.957Z,3.00
2019-04-14T00:38:54.348Z,3.07
2019-04-14T00:39:55.398Z,3.08
2019-04-14T00:40:54.215Z,3.11
2019-04-14T00:41:58.378Z,3.09
2019-04-14T00:42:55.955Z,3.12
2019-04-14T00:43:54.915Z,3.14
2019-04-14T00:44:54.053Z,3.12
2019-04-14T00:45:56.758Z,3.09
2019-04-14T00:46:56.033Z,3.15
2019-04-14T00:48:01.217Z,3.14
2019-04-14T00:48:56.021Z,3.12
2019-04-14T00:49:55.067Z,3.15
2019-04-14T00:50:54.057Z,3.09
2019-04-14T00:51:54.984Z,3.15
2019-04-14T00:52:54.537Z,3.15
2019-04-14T00:53:54.025Z,3.12
2019-04-14T00:54:54.323Z,3.14
2019-04-14T00:55:53.924Z,3.12
2019-04-14T00:56:54.185Z,3.09
2019-04-14T00:57:54.967Z,3.18
2019-04-14T00:58:54.025Z,3.12
2019-04-14T00:59:54.990Z,3.17
2019-04-14T01:00:54.032Z,3.14
2019-04-14T01:01:54.791Z,3.09
2019-04-14T01:02:54.163Z,3.14
2019-04-14T01:03:54.787Z,3.18
2019-04-14T01:04:53.947Z,3.20
2019-04-14T01:05:54.747Z,3.33
2019-04-14T01:06:53.809Z,3.20
2019-04-14T01:07:54.431Z,3.29
2019-04-14T01:08:53.786Z,3.22
2019-04-14T01:09:53.854Z,3.22
2019-04-14T01:10:54.060Z,3.25
2019-04-14T01:11:53.761Z,3.20
2019-04-14T01:12:53.952Z,3.35
2019-04-14T01:13:55.014Z,3.27
2019-04-14T01:14:53.923Z,3.41
2019-04-14T01:16:01.750Z,3.36
2019-04-14T01:16:55.797Z,3.33
2019-04-14T01:17:54.907Z,3.35
2019-04-14T01:18:53.795Z,3.37
2019-04-14T01:19:54.803Z,3.35
2019-04-14T01:20:53.688Z,3.32
2019-04-14T01:21:54.590Z,3.41
2019-04-14T01:22:53.672Z,3.42
2019-04-14T01:23:54.519Z,3.46
2019-04-14T01:24:53.623Z,3.51
2019-04-14T01:25:54.226Z,3.46
2019-04-14T01:26:54.911Z,3.46
2019-04-14T01:27:53.825Z,3.33
2019-04-14T01:28:54.697Z,3.35
2019-04-14T01:29:53.829Z,3.42
2019-04-14T01:30:54.469Z,3.41
2019-04-14T01:31:53.711Z,3.46
2019-04-14T01:34:15.175Z,3.48
2019-04-14T01:35:14.507Z,3.42
2019-04-14T01:36:14.831Z,3.49
2019-04-14T01:37:14.499Z,3.48
2019-04-14T01:38:14.792Z,3.42
2019-04-14T01:39:15.459Z,3.46
2019-04-14T01:40:14.480Z,3.42
2019-04-14T01:41:15.000Z,3.42
2019-04-14T01:42:14.451Z,3.35
2019-04-14T01:43:14.662Z,3.46
2019-04-14T01:44:15.540Z,3.44
2019-04-14T01:45:14.397Z,3.49
2019-04-14T01:46:18.429Z,3.37
2019-04-14T01:47:15.886Z,3.44
2019-04-14T01:48:14.844Z,3.45
2019-04-14T01:49:14.357Z,3.48
2019-04-14T01:50:14.878Z,3.41
2019-04-14T01:51:15.434Z,3.46
2019-04-14T01:52:14.591Z,3.51
2019-04-14T01:53:14.389Z,3.51
2019-04-14T01:54:14.942Z,3.48
2019-04-14T01:55:15.427Z,3.52
2019-04-14T01:56:14.495Z,3.51
2019-04-14T01:57:15.352Z,3.37
2019-04-14T01:58:14.463Z,3.45
2019-04-14T01:59:15.220Z,3.42
2019-04-14T02:00:14.240Z,3.49
2019-04-14T02:01:14.947Z,3.45
2019-04-14T02:02:14.255Z,3.49
2019-04-14T02:03:14.916Z,3.41
2019-04-14T02:04:14.272Z,3.37
2019-04-14T02:05:14.622Z,3.48
2019-04-14T02:06:14.180Z,3.46
2019-04-14T02:07:14.531Z,3.55
2019-04-14T02:08:15.419Z,3.44
2019-04-14T02:09:14.242Z,3.48
2019-04-14T02:10:15.102Z,3.55
2019-04-14T02:11:14.279Z,3.46
2019-04-14T02:12:14.856Z,3.48
2019-04-14T02:13:14.137Z,3.42
2019-04-14T02:14:14.783Z,3.48
2019-04-14T02:15:14.074Z,3.48
2019-04-14T02:16:24.011Z,3.44
2019-04-14T02:17:15.474Z,3.54
2019-04-14T02:18:22.912Z,3.41
2019-04-14T02:19:22.619Z,3.42
2019-04-14T02:20:22.945Z,3.44
2019-04-14T02:22:33.481Z,3.48
2019-04-14T02:23:41.739Z,3.46
2019-04-14T02:24:41.734Z,3.44
2019-04-14T02:25:42.929Z,3.42
2019-04-14T02:26:41.615Z,3.33
2019-04-14T02:27:42.941Z,3.42
2019-04-14T02:29:53.754Z,3.35
2019-04-14T02:31:06.341Z,3.27
2019-04-14T02:32:33.814Z,3.29
2019-04-14T02:33:32.159Z,3.27
2019-04-14T02:34:25.929Z,3.32
2019-04-14T02:36:43.523Z,3.33
2019-04-14T02:39:13.977Z,3.33
2019-04-14T02:41:14.394Z,3.37
2019-04-14T02:43:07.796Z,3.33
2019-04-14T02:49:56.141Z,3.22
2019-04-14T02:50:56.092Z,3.30
2019-04-14T02:57:41.688Z,3.36
2019-04-14T02:58:53.817Z,3.33
2019-04-14T02:59:45.275Z,3.25
2019-04-14T03:01:02.322Z,3.26
2019-04-14T03:03:08.856Z,3.36
2019-04-14T03:03:43.092Z,3.27
2019-04-14T03:04:44.835Z,3.35
2019-04-14T03:05:49.895Z,3.41
2019-04-14T03:06:41.141Z,3.29
2019-04-14T03:07:46.777Z,3.35
2019-04-14T03:09:43.126Z,3.33
2019-04-14T03:10:39.883Z,3.36
2019-04-14T03:12:52.789Z,3.45
2019-04-14T03:13:45.452Z,3.29
2019-04-14T03:14:49.559Z,3.44
2019-04-14T03:18:00.505Z,3.41
2019-04-14T03:21:11.178Z,3.26
2019-04-14T03:22:18.272Z,3.37
2019-04-14T03:23:05.058Z,3.27
2019-04-14T03:24:07.217Z,3.29
2019-04-14T03:24:53.773Z,3.32
2019-04-14T03:25:59.452Z,3.41
2019-04-14T03:27:04.987Z,3.36
2019-04-14T03:28:17.479Z,3.41
2019-04-14T03:28:56.536Z,3.36
2019-04-14T03:30:19.820Z,3.41
2019-04-14T03:31:30.483Z,3.29
2019-04-14T03:35:30.437Z,3.36
2019-04-14T03:37:31.787Z,3.41
2019-04-14T03:40:01.206Z,3.44
2019-04-14T03:41:08.676Z,3.44
2019-04-14T03:44:19.169Z,3.42
2019-04-14T03:45:03.840Z,3.48
2019-04-14T03:46:09.671Z,3.42
2019-04-14T03:47:10.954Z,3.42
2019-04-14T03:49:26.817Z,3.44
2019-04-14T03:52:26.916Z,3.44
2019-04-14T03:53:22.124Z,3.48
2019-04-14T03:54:15.930Z,3.54
2019-04-14T03:55:11.360Z,3.52
2019-04-14T03:56:00.785Z,3.45
2019-04-14T03:56:55.628Z,3.46
2019-04-14T03:57:54.106Z,3.59
2019-04-14T03:58:53.773Z,3.55
2019-04-14T03:59:54.178Z,3.55
2019-04-14T04:00:53.720Z,3.52
2019-04-14T04:02:05.338Z,3.55
2019-04-14T04:02:53.725Z,3.60
2019-04-14T04:03:54.225Z,3.54
2019-04-14T04:04:53.687Z,3.51
2019-04-14T04:05:54.254Z,3.60
2019-04-14T04:06:53.682Z,3.64
2019-04-14T04:07:53.873Z,3.64
2019-04-14T04:09:02.227Z,3.51
2019-04-14T04:09:54.076Z,3.62
2019-04-14T04:10:53.623Z,3.60
2019-04-14T04:11:54.112Z,3.59
2019-04-14T04:12:53.593Z,3.69
2019-04-14T04:13:54.161Z,3.69
2019-04-14T04:14:53.596Z,3.66
2019-04-14T04:15:54.020Z,3.55
2019-04-14T04:16:53.581Z,3.63
2019-04-14T04:17:53.853Z,3.56
2019-04-14T04:19:00.045Z,3.62
2019-04-14T04:19:55.613Z,3.64
2019-04-14T04:20:54.496Z,3.60
2019-04-14T04:21:53.566Z,3.64
2019-04-14T04:22:54.352Z,3.69
2019-04-14T04:23:53.667Z,3.70
2019-04-14T04:28:14.481Z,3.69
2019-04-14T04:29:13.678Z,3.73
2019-04-14T04:30:14.430Z,3.67
2019-04-14T04:31:13.659Z,3.66
2019-04-14T04:32:14.244Z,3.70
2019-04-14T04:33:24.216Z,3.63
2019-04-14T04:34:14.082Z,3.64
2019-04-14T04:35:13.661Z,3.66
2019-04-14T04:36:13.949Z,3.67
2019-04-14T04:37:14.853Z,3.69
2019-04-14T04:38:13.838Z,3.64
2019-04-14T04:39:13.577Z,3.67
2019-04-14T04:40:13.639Z,3.74
2019-04-14T04:41:14.622Z,3.73
2019-04-14T04:42:13.614Z,3.69
2019-04-14T04:43:14.600Z,3.72
2019-04-14T04:44:13.661Z,3.76
2019-04-14T04:45:14.820Z,3.73
2019-04-14T04:46:13.513Z,3.67
2019-04-14T04:49:14.453Z,3.78
2019-04-14T04:50:08.519Z,3.84
2019-04-14T04:51:16.011Z,3.84
2019-04-14T04:53:26.703Z,3.82
2019-04-14T04:55:35.148Z,3.82
2019-04-14T04:57:44.142Z,3.84
2019-04-14T04:58:52.304Z,3.80
2019-04-14T04:59:51.791Z,3.72
2019-04-14T05:00:54.181Z,3.73
2019-04-14T05:01:55.819Z,3.74
2019-04-14T05:02:54.961Z,3.72
2019-04-14T05:05:21.022Z,3.80
2019-04-14T05:06:22.288Z,3.66
2019-04-14T05:07:20.955Z,3.69
2019-04-14T05:08:21.717Z,3.70
2019-04-14T05:09:21.042Z,3.62
2019-04-14T05:10:21.737Z,3.74
2019-04-14T05:11:29.426Z,3.55
2019-04-14T05:12:21.706Z,3.78
2019-04-14T05:13:20.716Z,3.69
2019-04-14T05:14:21.589Z,3.73
2019-04-14T05:15:20.690Z,3.73
2019-04-14T05:16:21.417Z,3.66
2019-04-14T05:17:21.222Z,3.73
2019-04-14T05:18:20.636Z,3.69
2019-04-14T05:19:27.682Z,3.66
2019-04-14T05:20:22.473Z,3.63
2019-04-14T05:21:21.432Z,3.70
2019-04-14T05:22:21.301Z,3.63
2019-04-14T05:23:21.323Z,3.70
2019-04-14T05:24:20.572Z,3.62
2019-04-14T05:25:21.582Z,3.64
2019-04-14T05:26:20.583Z,3.66
2019-04-14T05:27:21.102Z,3.67
2019-04-14T05:28:21.941Z,3.66
2019-04-14T05:29:21.101Z,3.60
2019-04-14T05:30:21.776Z,3.60
2019-04-14T05:31:20.775Z,3.48
2019-04-14T05:32:21.620Z,3.63
2019-04-14T05:33:20.777Z,3.55
2019-04-14T05:34:21.541Z,3.62
2019-04-14T05:35:29.041Z,3.63
2019-04-14T05:36:21.453Z,3.66
2019-04-14T05:37:20.432Z,3.67
2019-04-14T05:38:21.163Z,3.69
2019-04-14T05:39:20.479Z,3.66
2019-04-14T05:40:21.051Z,3.67
2019-04-14T05:41:20.430Z,3.64
2019-04-14T05:42:25.143Z,3.64
2019-04-14T05:43:30.228Z,3.63
2019-04-14T05:44:21.380Z,3.76
2019-04-14T05:45:20.385Z,3.73
2019-04-14T05:46:20.687Z,3.76
2019-04-14T05:47:20.326Z,3.78
2019-04-14T05:48:20.463Z,3.64
2019-04-14T05:49:30.608Z,3.74
2019-04-14T05:50:21.297Z,3.73
2019-04-14T05:51:22.137Z,3.72
2019-04-14T05:52:20.662Z,3.72
2019-04-14T05:53:20.275Z,3.81
2019-04-14T05:54:20.667Z,3.84
2019-04-14T05:55:30.598Z,3.88
2019-04-14T05:56:20.692Z,3.85
2019-04-14T05:57:20.225Z,4.00
2019-04-14T05:58:29.703Z,3.96
2019-04-14T05:59:20.224Z,4.03
2019-04-14T06:00:21.193Z,4.08
2019-04-14T06:01:20.378Z,4.06
2019-04-14T06:02:20.267Z,4.09
2019-04-14T06:03:21.221Z,4.06
2019-04-14T06:04:20.154Z,4.05
2019-04-14T06:05:21.148Z,4.05
2019-04-14T06:06:20.135Z,4.13
2019-04-14T06:07:20.126Z,4.17
2019-04-14T06:08:20.107Z,4.18
2019-04-14T06:09:20.097Z,4.17
2019-04-14T06:10:20.138Z,4.17
2019-04-14T06:11:20.079Z,4.17
2019-04-14T06:12:20.092Z,4.17
2019-04-14T06:13:20.056Z,4.12
2019-04-14T06:14:20.047Z,4.12
2019-04-14T06:15:20.054Z,4.16
2019-04-14T06:16:20.026Z,4.18
2019-04-14T06:17:20.017Z,4.23
2019-04-14T06:18:20.004Z,4.26
2019-04-14T06:19:20.050Z,4.24
2019-04-14T06:20:20.011Z,4.26
2019-04-14T06:21:19.972Z,4.26
2019-04-14T06:22:19.962Z,4.34
2019-04-14T06:23:19.956Z,4.39
2019-04-14T06:24:19.941Z,4.31
2019-04-14T06:25:19.984Z,4.34
2019-04-14T06:26:19.921Z,4.46
2019-04-14T06:27:19.945Z,4.45
2019-04-14T06:28:19.899Z,4.45
2019-04-14T06:29:19.888Z,4.49
2019-04-14T06:30:19.993Z,4.61
2019-04-14T06:31:19.883Z,4.59
2019-04-14T06:32:19.859Z,4.63
2019-04-14T06:33:19.882Z,4.66
2019-04-14T06:34:20.040Z,4.75
2019-04-14T06:35:19.906Z,4.77
2019-04-14T06:40:35.199Z,4.93
2019-04-14T06:43:11.697Z,5.01
2019-04-14T06:47:08.782Z,5.04
2019-04-14T06:50:57.539Z,5.22
2019-04-14T06:53:08.183Z,5.34
2019-04-14T06:55:25.738Z,5.32
2019-04-14T06:59:37.897Z,5.41
2019-04-14T07:00:37.828Z,5.50
2019-04-14T07:01:38.993Z,5.50
2019-04-14T07:02:37.983Z,5.47
2019-04-14T07:03:37.841Z,5.47
2019-04-14T07:04:37.821Z,5.55
2019-04-14T07:05:37.955Z,5.48
2019-04-14T07:06:37.678Z,5.52
2019-04-14T07:07:37.799Z,5.47
2019-04-14T07:11:59.841Z,5.55
2019-04-14T07:19:01.074Z,5.87
2019-04-14T07:20:02.495Z,5.87
2019-04-14T07:21:01.040Z,5.72
2019-04-14T07:22:01.018Z,5.87
2019-04-14T07:23:01.033Z,5.93
2019-04-14T07:24:01.011Z,5.95
2019-04-14T07:25:00.982Z,5.90
2019-04-14T07:26:01.058Z,6.06
2019-04-14T07:27:00.964Z,6.03
2019-04-14T07:28:00.971Z,5.94
2019-04-14T07:29:00.955Z,5.97
2019-04-14T07:30:00.957Z,5.94
2019-04-14T07:31:00.915Z,6.05
2019-04-14T07:32:00.905Z,6.00
2019-04-14T07:33:00.919Z,6.03
2019-04-14T07:34:00.883Z,6.15
2019-04-14T07:35:00.909Z,6.28
2019-04-14T07:36:00.870Z,6.24
2019-04-14T07:37:00.854Z,6.19
2019-04-14T07:38:00.844Z,6.25
2019-04-14T07:39:00.866Z,6.21
2019-04-14T07:40:00.825Z,6.24
2019-04-14T07:41:00.811Z,6.21
2019-04-14T07:42:00.849Z,6.31
2019-04-14T07:43:00.822Z,6.34
2019-04-14T07:44:00.782Z,6.35
2019-04-14T07:45:00.764Z,6.42
2019-04-14T07:46:00.756Z,6.40
2019-04-14T07:47:00.743Z,6.43
2019-04-14T07:48:00.762Z,6.47
2019-04-14T07:49:00.750Z,6.47
2019-04-14T07:50:00.708Z,6.53
2019-04-14T07:51:00.705Z,6.63
2019-04-14T07:52:00.693Z,6.61
2019-04-14T07:53:00.682Z,6.60
2019-04-14T07:54:00.688Z,6.60
2019-04-14T07:55:00.725Z,6.61
2019-04-14T07:56:00.643Z,6.65
2019-04-14T07:57:00.631Z,6.70
2019-04-14T07:58:00.625Z,6.81
2019-04-14T07:59:00.629Z,6.83
2019-04-14T08:00:00.611Z,6.86
2019-04-14T08:01:00.611Z,7.01
2019-04-14T08:02:00.581Z,7.03
2019-04-14T08:03:00.583Z,7.10
2019-04-14T08:04:00.581Z,7.19
2019-04-14T08:05:00.551Z,7.13
2019-04-14T08:06:00.535Z,7.26
2019-04-14T08:07:00.532Z,7.36
2019-04-14T08:08:00.512Z,7.33
2019-04-14T08:09:00.503Z,7.34
2019-04-14T08:10:00.528Z,7.39
2019-04-14T08:11:00.491Z,7.33
2019-04-14T08:12:00.467Z,7.36
2019-04-14T08:13:00.462Z,7.43
2019-04-14T08:14:00.448Z,7.47
2019-04-14T08:15:00.458Z,7.49
2019-04-14T08:16:00.434Z,7.57
2019-04-14T08:17:00.413Z,7.46
2019-04-14T08:18:00.403Z,7.57
2019-04-14T08:19:00.395Z,7.62
2019-04-14T08:20:00.401Z,7.71
2019-04-14T08:21:00.371Z,7.86
2019-04-14T08:22:00.365Z,7.77
2019-04-14T08:23:00.346Z,7.84
2019-04-14T08:24:00.337Z,7.86
2019-04-14T08:25:00.347Z,7.78
2019-04-14T08:26:00.384Z,7.84
2019-04-14T08:27:00.303Z,7.91
2019-04-14T08:28:00.309Z,7.83
2019-04-14T08:29:00.295Z,7.94
2019-04-14T08:30:00.296Z,7.86
2019-04-14T08:31:00.258Z,7.87
2019-04-14T08:32:00.250Z,7.92
2019-04-14T08:33:00.239Z,7.95
2019-04-14T08:34:00.229Z,7.88
2019-04-14T08:35:00.247Z,7.88
2019-04-14T08:36:00.205Z,7.98
2019-04-14T08:37:00.214Z,8.14
2019-04-14T08:38:00.190Z,8.23
2019-04-14T08:39:00.180Z,8.41
2019-04-14T08:40:00.163Z,8.49
2019-04-14T08:41:00.204Z,8.53
2019-04-14T08:42:00.160Z,8.56
2019-04-14T08:43:00.136Z,8.74
2019-04-14T08:44:00.115Z,8.75
2019-04-14T08:45:00.117Z,8.89
2019-04-14T08:46:00.133Z,9.06
2019-04-14T08:47:00.117Z,8.96
2019-04-14T08:48:00.080Z,8.88
2019-04-14T08:49:00.062Z,8.83
2019-04-14T08:50:00.056Z,8.88
2019-04-14T08:51:00.083Z,8.92
2019-04-14T08:52:00.037Z,9.01
2019-04-14T08:53:00.019Z,9.08
2019-04-14T08:54:00.014Z,9.24
2019-04-14T08:55:00.004Z,9.29
2019-04-14T08:56:00.028Z,9.34
2019-04-14T08:56:59.987Z,9.37
2019-04-14T08:57:59.989Z,9.47
2019-04-14T08:58:59.963Z,9.55
2019-04-14T08:59:59.960Z,9.69
2019-04-14T09:00:59.931Z,9.65
2019-04-14T09:01:59.939Z,9.75
2019-04-14T09:02:59.913Z,9.94
2019-04-14T09:03:59.930Z,10.17
2019-04-14T09:04:59.891Z,10.23
2019-04-14T09:05:59.882Z,10.30
2019-04-14T09:06:59.890Z,10.49
2019-04-14T09:07:59.860Z,10.60
2019-04-14T09:08:59.881Z,11.04
2019-04-14T09:09:59.843Z,11.43
2019-04-14T09:10:59.829Z,11.66
2019-04-14T09:11:59.861Z,11.84
2019-04-14T09:12:59.803Z,12.21
2019-04-14T09:13:59.791Z,11.73
2019-04-14T09:15:07.328Z,11.99
2019-04-14T09:15:59.768Z,12.44
2019-04-14T09:16:59.758Z,12.81
2019-04-14T09:17:59.775Z,13.17
2019-04-14T09:19:07.650Z,13.58
2019-04-14T09:20:00.729Z,13.79
2019-04-14T09:20:59.727Z,14.03
2019-04-14T09:21:59.707Z,14.21
2019-04-14T09:23:09.745Z,14.40
2019-04-14T09:23:59.686Z,14.55
2019-04-14T09:24:59.685Z,14.77
2019-04-14T09:26:08.495Z,14.93
2019-04-14T09:26:59.654Z,15.35
2019-04-14T09:27:59.662Z,15.65
2019-04-14T09:29:09.746Z,16.08
2019-04-14T09:29:59.619Z,16.18
2019-04-14T09:30:59.615Z,16.43
2019-04-14T09:31:59.591Z,16.22
2019-04-14T09:32:59.604Z,16.26
2019-04-14T09:33:59.589Z,16.62
2019-04-14T09:34:59.560Z,17.22
2019-04-14T09:35:59.579Z,17.27
2019-04-14T09:36:59.550Z,16.98
2019-04-14T09:37:59.528Z,16.08
2019-04-14T09:38:59.538Z,15.11
2019-04-14T09:39:59.506Z,14.31
2019-04-14T09:40:59.492Z,13.80
2019-04-14T09:41:59.481Z,14.23
2019-04-14T09:42:59.479Z,15.23
2019-04-14T09:43:59.486Z,15.83
2019-04-14T09:44:59.451Z,16.74
2019-04-14T09:45:59.451Z,17.04
2019-04-14T09:46:59.429Z,17.24
2019-04-14T09:47:59.422Z,17.56
2019-04-14T09:48:59.405Z,17.94
2019-04-14T09:49:59.516Z,18.23
2019-04-14T09:51:04.946Z,18.36
2019-04-14T09:52:00.377Z,18.38
2019-04-14T09:52:59.368Z,18.23
2019-04-14T09:53:59.359Z,18.33
2019-04-14T09:54:59.392Z,17.62
2019-04-14T09:55:59.339Z,17.43
2019-04-14T09:56:59.343Z,17.24
2019-04-14T09:57:59.352Z,17.13
2019-04-14T09:58:59.298Z,17.10
2019-04-14T09:59:59.304Z,17.27
2019-04-14T10:00:59.281Z,17.25
2019-04-14T10:01:59.309Z,17.02
2019-04-14T10:02:59.257Z,16.73
2019-04-14T10:03:59.246Z,16.39
2019-04-14T10:04:59.252Z,16.14
2019-04-14T10:05:59.229Z,15.85
2019-04-14T10:06:59.223Z,15.58
2019-04-14T10:07:59.223Z,15.51
2019-04-14T10:08:59.201Z,15.29
2019-04-14T10:09:59.201Z,15.30
2019-04-14T10:10:59.175Z,15.25
2019-04-14T10:11:59.184Z,15.14
2019-04-14T10:12:59.175Z,15.12
2019-04-14T10:13:59.139Z,15.25
2019-04-14T10:14:59.153Z,15.12
2019-04-14T10:15:59.118Z,14.92
2019-04-14T10:17:01.284Z,14.59
2019-04-14T10:17:59.129Z,14.55
2019-04-14T10:18:59.083Z,14.34
2019-04-14T10:19:59.114Z,14.44
2019-04-14T10:20:59.165Z,14.33
2019-04-14T10:21:59.062Z,14.28
2019-04-14T10:22:59.102Z,14.08
2019-04-14T10:23:59.090Z,14.19
2019-04-14T10:24:59.073Z,14.22
2019-04-14T10:25:59.025Z,14.27
2019-04-14T10:26:58.999Z,14.34
2019-04-14T10:27:58.990Z,14.23
2019-04-14T10:28:58.986Z,14.30
2019-04-14T10:29:58.973Z,14.36
2019-04-14T10:30:58.978Z,14.38
2019-04-14T10:32:07.767Z,14.49
2019-04-14T10:34:16.274Z,14.51
2019-04-14T10:35:23.856Z,14.36
2019-04-14T10:36:26.407Z,14.44
2019-04-14T10:37:23.790Z,14.55
2019-04-14T10:38:17.197Z,14.64
2019-04-14T10:41:29.843Z,14.78
2019-04-14T10:43:43.196Z,14.93
2019-04-14T10:45:58.908Z,15.14
2019-04-14T10:46:58.917Z,15.11
2019-04-14T10:47:58.876Z,14.96
2019-04-14T10:49:07.539Z,14.90
2019-04-14T10:49:59.177Z,14.74
2019-04-14T10:50:58.851Z,14.59
2019-04-14T10:51:58.914Z,14.51
2019-04-14T10:53:12.487Z,14.13
2019-04-14T10:53:58.858Z,13.80
2019-04-14T10:55:06.412Z,13.49
2019-04-14T10:56:06.370Z,13.39
2019-04-14T10:58:10.057Z,13.11
2019-04-14T10:59:10.030Z,13.04
2019-04-14T11:00:10.075Z,12.95
2019-04-14T11:01:10.015Z,12.87
2019-04-14T11:02:10.065Z,12.90
2019-04-14T11:03:10.032Z,12.86
2019-04-14T11:04:10.002Z,12.96
2019-04-14T11:05:09.986Z,12.96
2019-04-14T11:06:09.960Z,12.69
2019-04-14T11:07:09.973Z,12.63
2019-04-14T11:08:09.989Z,12.63
2019-04-14T11:09:09.923Z,12.62
2019-04-14T11:10:09.972Z,12.79
2019-04-14T11:11:09.906Z,12.90
2019-04-14T11:12:09.900Z,13.05
2019-04-14T11:13:09.913Z,13.13
2019-04-14T11:14:09.869Z,13.17
2019-04-14T11:15:09.852Z,13.23
2019-04-14T11:16:09.872Z,13.42
2019-04-14T11:17:09.832Z,13.39
2019-04-14T11:18:09.851Z,13.58
2019-04-14T11:19:09.834Z,13.68
2019-04-14T11:20:09.794Z,13.63
2019-04-14T11:21:09.786Z,13.57
2019-04-14T11:22:09.780Z,13.54
2019-04-14T11:23:09.843Z,13.47
2019-04-14T11:24:09.821Z,13.65
2019-04-14T11:25:09.740Z,13.79
2019-04-14T11:26:18.332Z,13.82
2019-04-14T11:27:09.748Z,13.76
2019-04-14T11:28:09.729Z,13.67
2019-04-14T11:29:09.694Z,13.46
2019-04-14T11:30:09.681Z,13.47
2019-04-14T11:31:09.676Z,13.26
2019-04-14T11:32:09.667Z,13.20
2019-04-14T11:33:09.655Z,13.53
2019-04-14T11:34:09.657Z,13.71
2019-04-14T11:35:09.639Z,14.03
2019-04-14T11:36:09.675Z,14.08
2019-04-14T11:37:09.671Z,14.12
2019-04-14T11:38:09.673Z,13.86
2019-04-14T11:39:09.687Z,14.01
2019-04-14T11:40:09.588Z,14.00
2019-04-14T11:41:09.562Z,14.15
2019-04-14T11:42:09.556Z,14.34
2019-04-14T11:43:09.575Z,14.64
2019-04-14T11:44:09.587Z,14.66
2019-04-14T11:45:09.537Z,14.85
2019-04-14T11:46:09.803Z,15.01
2019-04-14T11:47:09.584Z,15.07
2019-04-14T11:48:09.541Z,15.11
2019-04-14T11:49:09.502Z,15.14
2019-04-14T11:50:09.645Z,15.20
2019-04-14T11:51:09.458Z,15.25
2019-04-14T11:52:09.447Z,15.30
2019-04-14T11:53:09.503Z,15.33
2019-04-14T11:54:09.467Z,14.99
2019-04-14T11:55:09.414Z,15.29
2019-04-14T11:56:09.422Z,15.60
2019-04-14T11:57:09.394Z,15.81
2019-04-14T11:58:09.371Z,16.03
2019-04-14T11:59:09.387Z,16.18
2019-04-14T12:00:09.351Z,16.21
2019-04-14T12:01:09.369Z,16.43
2019-04-14T12:02:09.336Z,16.57
2019-04-14T12:03:09.354Z,16.74
2019-04-14T12:04:09.376Z,16.73
2019-04-14T12:05:09.376Z,16.70
2019-04-14T12:06:09.324Z,16.52
2019-04-14T12:07:09.282Z,16.37
2019-04-14T12:08:09.263Z,16.10
2019-04-14T12:09:09.270Z,16.03
2019-04-14T12:10:09.285Z,16.00
2019-04-14T12:11:09.466Z,15.84
2019-04-14T12:12:09.220Z,15.59
2019-04-14T12:13:09.259Z,15.25
2019-04-14T12:14:09.208Z,15.05
2019-04-14T12:15:16.159Z,15.04
2019-04-14T12:16:10.197Z,15.05
2019-04-14T12:17:09.182Z,14.99
2019-04-14T12:18:09.155Z,14.99
2019-04-14T12:19:09.199Z,14.99
2019-04-14T12:20:09.169Z,15.01
2019-04-14T12:21:09.122Z,15.03
2019-04-14T12:22:09.159Z,15.05
2019-04-14T12:23:09.107Z,15.15
2019-04-14T12:24:09.115Z,15.26
2019-04-14T12:25:09.120Z,15.17
2019-04-14T12:26:09.071Z,15.14
2019-04-14T12:27:09.103Z,15.15
2019-04-14T12:28:09.251Z,15.08
2019-04-14T12:29:09.701Z,14.95
2019-04-14T12:30:09.066Z,14.79
2019-04-14T12:31:09.018Z,15.01
2019-04-14T12:32:09.047Z,15.25
2019-04-14T12:33:09.002Z,15.48
2019-04-14T12:34:08.984Z,15.48
2019-04-14T12:35:09.014Z,15.48
2019-04-14T12:36:09.021Z,15.54
2019-04-14T12:37:08.962Z,15.52
2019-04-14T12:38:08.935Z,15.35
2019-04-14T12:39:08.972Z,15.23
2019-04-14T12:40:08.962Z,14.96
2019-04-14T12:41:08.943Z,14.83
2019-04-14T12:42:08.899Z,14.96
2019-04-14T12:43:08.893Z,14.95
2019-04-14T12:44:08.871Z,15.05
2019-04-14T12:45:08.867Z,15.07
2019-04-14T12:46:08.870Z,15.12
2019-04-14T12:47:08.855Z,14.97
2019-04-14T12:48:08.829Z,14.95
2019-04-14T12:49:08.815Z,14.89
2019-04-14T12:50:08.898Z,14.87
2019-04-14T12:51:08.859Z,14.99
2019-04-14T12:52:20.642Z,15.04
2019-04-14T12:53:09.813Z,14.87
2019-04-14T12:54:08.841Z,14.99
2019-04-14T12:55:08.906Z,14.93
2019-04-14T12:56:08.753Z,15.01
2019-04-14T12:57:08.754Z,15.17
2019-04-14T12:58:11.152Z,15.22
2019-04-14T12:59:08.763Z,15.59
2019-04-14T13:00:08.708Z,15.72
2019-04-14T13:01:08.687Z,15.98
2019-04-14T13:02:10.981Z,16.21
2019-04-14T13:03:08.702Z,15.93
2019-04-14T13:04:08.660Z,15.65
2019-04-14T13:05:08.663Z,15.23
2019-04-14T13:06:08.841Z,15.10
2019-04-14T13:07:08.665Z,15.20
2019-04-14T13:08:08.662Z,15.25
2019-04-14T13:09:08.674Z,15.26
2019-04-14T13:10:08.923Z,15.22
2019-04-14T13:11:08.689Z,14.99
2019-04-14T13:12:10.338Z,15.07
2019-04-14T13:13:08.631Z,15.41
2019-04-14T13:14:08.560Z,15.62
2019-04-14T13:15:08.569Z,15.60
2019-04-14T13:16:08.562Z,15.45
2019-04-14T13:17:08.599Z,15.12
2019-04-14T13:18:08.597Z,15.04
2019-04-14T13:19:08.592Z,15.25
2019-04-14T13:20:08.503Z,15.40
2019-04-14T13:21:08.487Z,15.38
2019-04-14T13:22:08.492Z,15.26
2019-04-14T13:23:08.501Z,15.26
2019-04-14T13:24:08.510Z,15.19
2019-04-14T13:25:08.517Z,15.04
2019-04-14T13:26:08.440Z,14.96
2019-04-14T13:27:08.420Z,15.12
2019-04-14T13:28:08.514Z,15.17
2019-04-14T13:29:08.434Z,15.25
2019-04-14T13:30:08.444Z,15.25
2019-04-14T13:31:08.437Z,15.15
2019-04-14T13:32:08.383Z,15.11
2019-04-14T13:33:08.381Z,15.12
2019-04-14T13:34:08.394Z,15.08
2019-04-14T13:35:08.370Z,15.03
2019-04-14T13:36:08.369Z,15.14
2019-04-14T13:37:08.334Z,15.03
2019-04-14T13:38:08.298Z,14.73
2019-04-14T13:39:08.329Z,14.55
2019-04-14T13:40:08.297Z,14.55
2019-04-14T13:41:08.297Z,14.44
2019-04-14T13:42:08.315Z,14.59
2019-04-14T13:43:08.328Z,14.70
2019-04-14T13:44:08.321Z,14.79
2019-04-14T13:45:08.364Z,14.85
2019-04-14T13:46:08.320Z,14.89
2019-04-14T13:47:08.262Z,14.64
2019-04-14T13:48:08.236Z,14.55
2019-04-14T13:49:08.225Z,14.71
2019-04-14T13:50:08.208Z,14.67
2019-04-14T13:51:08.180Z,14.66
2019-04-14T13:52:08.180Z,14.58
2019-04-14T13:53:08.130Z,14.48
2019-04-14T13:54:08.135Z,14.22
2019-04-14T13:55:08.209Z,14.08
2019-04-14T13:56:08.104Z,14.13
2019-04-14T13:57:08.122Z,13.94
2019-04-14T13:58:08.129Z,14.00
2019-04-14T13:59:08.083Z,13.98
2019-04-14T14:00:08.094Z,14.01
2019-04-14T14:01:08.038Z,14.11
2019-04-14T14:02:08.124Z,13.85
2019-04-14T14:03:08.084Z,13.83
2019-04-14T14:04:08.041Z,13.94
2019-04-14T14:05:07.997Z,14.04
2019-04-14T14:06:07.999Z,13.97
2019-04-14T14:07:07.976Z,13.94
2019-04-14T14:08:07.963Z,14.01
2019-04-14T14:09:07.970Z,14.00
2019-04-14T14:10:07.939Z,13.94
2019-04-14T14:11:07.946Z,13.91
2019-04-14T14:12:07.940Z,13.85
2019-04-14T14:13:07.904Z,13.93
2019-04-14T14:14:07.942Z,14.01
2019-04-14T14:15:07.919Z,13.94
2019-04-14T14:16:07.870Z,13.86
2019-04-14T14:17:07.860Z,13.90
2019-04-14T14:18:07.869Z,13.83
2019-04-14T14:19:07.863Z,13.98
2019-04-14T14:20:07.866Z,13.98
2019-04-14T14:21:07.821Z,13.90
2019-04-14T14:22:07.812Z,13.88
2019-04-14T14:23:07.799Z,13.78
2019-04-14T14:24:07.891Z,13.71
2019-04-14T14:25:07.815Z,13.78
2019-04-14T14:26:07.843Z,13.64
2019-04-14T14:27:07.803Z,13.63
2019-04-14T14:28:07.745Z,13.45
2019-04-14T14:29:07.740Z,13.45
2019-04-14T14:30:08.100Z,13.23
2019-04-14T14:31:07.908Z,13.20
2019-04-14T14:32:07.724Z,13.16